sensor_id;sensor_type;location;lat;lon;timestamp;P1;durP1;ratioP1;P2;durP2;ratioP2
6077;SDS011;3067;49.470;10.394;2022-10-10T00:02:09;4.60;;;3.90;;
6077;SDS011;3067;49.470;10.394;2022-10-10T00:04:36;4.60;;;4.20;;
6077;SDS011;3067;49.470;10.394;2022-10-10T00:07:03;5.37;;;4.30;;
6077;SDS011;3067;49.470;10.394;2022-10-10T00:09:30;4.47;;;4.17;;
6077;SDS011;3067;49.470;10.394;2022-10-10T00:11:58;9.23;;;4.30;;
6077;SDS011;3067;49.470;10.394;2022-10-10T00:14:25;4.20;;;3.80;;
6077;SDS011;3067;49.470;10.394;2022-10-10T00:16:52;5.50;;;3.90;;
6077;SDS011;3067;49.470;10.394;2022-10-10T00:19:21;5.20;;;3.87;;
6077;SDS011;3067;49.470;10.394;2022-10-10T00:21:48;3.80;;;3.60;;
6077;SDS011;3067;49.470;10.394;2022-10-10T00:24:15;5.90;;;4.00;;
6077;SDS011;3067;49.470;10.394;2022-10-10T00:26:43;6.90;;;4.63;;
6077;SDS011;3067;49.470;10.394;2022-10-10T00:29:10;6.80;;;4.83;;
6077;SDS011;3067;49.470;10.394;2022-10-10T00:31:37;4.40;;;4.00;;
6077;SDS011;3067;49.470;10.394;2022-10-10T00:34:04;6.53;;;5.00;;
6077;SDS011;3067;49.470;10.394;2022-10-10T00:36:33;7.67;;;4.70;;
6077;SDS011;3067;49.470;10.394;2022-10-10T00:39:00;5.70;;;4.40;;
6077;SDS011;3067;49.470;10.394;2022-10-10T00:41:28;4.43;;;3.97;;
6077;SDS011;3067;49.470;10.394;2022-10-10T00:44:02;6.93;;;4.40;;
6077;SDS011;3067;49.470;10.394;2022-10-10T00:46:29;4.60;;;4.20;;
6077;SDS011;3067;49.470;10.394;2022-10-10T00:48:56;4.60;;;4.17;;
6077;SDS011;3067;49.470;10.394;2022-10-10T00:51:24;4.53;;;4.13;;
6077;SDS011;3067;49.470;10.394;2022-10-10T00:53:54;9.77;;;4.70;;
6077;SDS011;3067;49.470;10.394;2022-10-10T00:56:24;4.43;;;4.03;;
6077;SDS011;3067;49.470;10.394;2022-10-10T00:58:54;5.73;;;4.10;;
6077;SDS011;3067;49.470;10.394;2022-10-10T01:01:22;5.20;;;3.90;;
6077;SDS011;3067;49.470;10.394;2022-10-10T01:03:49;4.53;;;4.07;;
6077;SDS011;3067;49.470;10.394;2022-10-10T01:06:17;5.67;;;4.63;;
6077;SDS011;3067;49.470;10.394;2022-10-10T01:08:44;8.60;;;4.53;;
6077;SDS011;3067;49.470;10.394;2022-10-10T01:11:19;7.60;;;4.43;;
6077;SDS011;3067;49.470;10.394;2022-10-10T01:13:51;6.20;;;4.90;;
6077;SDS011;3067;49.470;10.394;2022-10-10T01:16:22;6.73;;;4.20;;
6077;SDS011;3067;49.470;10.394;2022-10-10T01:18:52;6.20;;;4.83;;
6077;SDS011;3067;49.470;10.394;2022-10-10T01:21:25;5.30;;;3.87;;
6077;SDS011;3067;49.470;10.394;2022-10-10T01:24:01;6.30;;;4.67;;
6077;SDS011;3067;49.470;10.394;2022-10-10T01:26:36;9.40;;;4.40;;
6077;SDS011;3067;49.470;10.394;2022-10-10T01:29:12;7.63;;;4.23;;
6077;SDS011;3067;49.470;10.394;2022-10-10T01:31:44;4.57;;;3.93;;
6077;SDS011;3067;49.470;10.394;2022-10-10T01:34:15;4.20;;;3.87;;
6077;SDS011;3067;49.470;10.394;2022-10-10T01:36:48;5.77;;;4.47;;
6077;SDS011;3067;49.470;10.394;2022-10-10T01:39:18;6.20;;;5.40;;
6077;SDS011;3067;49.470;10.394;2022-10-10T01:41:49;11.50;;;4.20;;
6077;SDS011;3067;49.470;10.394;2022-10-10T01:44:18;7.60;;;4.10;;
6077;SDS011;3067;49.470;10.394;2022-10-10T01:46:47;8.20;;;4.10;;
6077;SDS011;3067;49.470;10.394;2022-10-10T01:49:14;6.70;;;4.50;;
6077;SDS011;3067;49.470;10.394;2022-10-10T01:51:46;5.30;;;4.40;;
6077;SDS011;3067;49.470;10.394;2022-10-10T01:54:19;5.30;;;4.47;;
6077;SDS011;3067;49.470;10.394;2022-10-10T01:56:53;5.87;;;4.33;;
6077;SDS011;3067;49.470;10.394;2022-10-10T01:59:28;6.77;;;4.03;;
6077;SDS011;3067;49.470;10.394;2022-10-10T02:02:00;6.20;;;4.20;;
6077;SDS011;3067;49.470;10.394;2022-10-10T02:04:29;4.90;;;4.50;;
6077;SDS011;3067;49.470;10.394;2022-10-10T02:06:59;5.83;;;4.17;;
6077;SDS011;3067;49.470;10.394;2022-10-10T02:09:28;7.13;;;4.63;;
6077;SDS011;3067;49.470;10.394;2022-10-10T02:12:00;12.27;;;4.77;;
6077;SDS011;3067;49.470;10.394;2022-10-10T02:14:29;5.80;;;4.60;;
6077;SDS011;3067;49.470;10.394;2022-10-10T02:16:59;4.83;;;4.37;;
6077;SDS011;3067;49.470;10.394;2022-10-10T02:19:26;4.83;;;4.43;;
6077;SDS011;3067;49.470;10.394;2022-10-10T02:21:55;4.90;;;4.50;;
6077;SDS011;3067;49.470;10.394;2022-10-10T02:24:23;6.87;;;4.80;;
6077;SDS011;3067;49.470;10.394;2022-10-10T02:26:51;6.77;;;4.77;;
6077;SDS011;3067;49.470;10.394;2022-10-10T02:29:21;8.93;;;4.70;;
6077;SDS011;3067;49.470;10.394;2022-10-10T02:31:53;4.97;;;4.53;;
6077;SDS011;3067;49.470;10.394;2022-10-10T02:34:23;4.90;;;4.50;;
6077;SDS011;3067;49.470;10.394;2022-10-10T02:36:52;5.07;;;4.20;;
6077;SDS011;3067;49.470;10.394;2022-10-10T02:39:21;5.00;;;4.50;;
6077;SDS011;3067;49.470;10.394;2022-10-10T02:41:49;8.67;;;4.70;;
6077;SDS011;3067;49.470;10.394;2022-10-10T02:44:17;5.33;;;4.50;;
6077;SDS011;3067;49.470;10.394;2022-10-10T02:46:45;6.90;;;4.40;;
6077;SDS011;3067;49.470;10.394;2022-10-10T02:49:14;5.20;;;4.70;;
6077;SDS011;3067;49.470;10.394;2022-10-10T02:51:48;5.80;;;4.40;;
6077;SDS011;3067;49.470;10.394;2022-10-10T02:54:15;7.30;;;5.07;;
6077;SDS011;3067;49.470;10.394;2022-10-10T02:56:43;9.63;;;4.70;;
6077;SDS011;3067;49.470;10.394;2022-10-10T02:59:10;5.83;;;4.37;;
6077;SDS011;3067;49.470;10.394;2022-10-10T03:01:37;6.47;;;4.90;;
6077;SDS011;3067;49.470;10.394;2022-10-10T03:04:04;11.00;;;4.60;;
6077;SDS011;3067;49.470;10.394;2022-10-10T03:06:33;4.47;;;4.17;;
6077;SDS011;3067;49.470;10.394;2022-10-10T03:09:01;5.20;;;4.80;;
6077;SDS011;3067;49.470;10.394;2022-10-10T03:11:28;5.93;;;4.63;;
6077;SDS011;3067;49.470;10.394;2022-10-10T03:13:56;5.60;;;4.73;;
6077;SDS011;3067;49.470;10.394;2022-10-10T03:16:23;5.27;;;4.50;;
6077;SDS011;3067;49.470;10.394;2022-10-10T03:18:50;5.27;;;4.80;;
6077;SDS011;3067;49.470;10.394;2022-10-10T03:21:18;5.03;;;4.53;;
6077;SDS011;3067;49.470;10.394;2022-10-10T03:23:46;4.93;;;4.50;;
6077;SDS011;3067;49.470;10.394;2022-10-10T03:26:13;5.27;;;4.43;;
6077;SDS011;3067;49.470;10.394;2022-10-10T03:28:41;4.50;;;4.10;;
6077;SDS011;3067;49.470;10.394;2022-10-10T03:31:08;8.40;;;4.53;;
6077;SDS011;3067;49.470;10.394;2022-10-10T03:33:36;5.07;;;4.13;;
6077;SDS011;3067;49.470;10.394;2022-10-10T03:36:03;4.63;;;4.20;;
6077;SDS011;3067;49.470;10.394;2022-10-10T03:38:30;7.00;;;4.30;;
6077;SDS011;3067;49.470;10.394;2022-10-10T03:40:59;5.43;;;4.60;;
6077;SDS011;3067;49.470;10.394;2022-10-10T03:43:26;8.43;;;5.77;;
6077;SDS011;3067;49.470;10.394;2022-10-10T03:45:54;7.40;;;6.10;;
6077;SDS011;3067;49.470;10.394;2022-10-10T03:48:21;6.90;;;5.60;;
6077;SDS011;3067;49.470;10.394;2022-10-10T03:50:48;5.83;;;5.20;;
6077;SDS011;3067;49.470;10.394;2022-10-10T03:53:15;7.97;;;5.40;;
6077;SDS011;3067;49.470;10.394;2022-10-10T03:55:43;8.33;;;5.80;;
6077;SDS011;3067;49.470;10.394;2022-10-10T03:58:11;9.07;;;5.70;;
6077;SDS011;3067;49.470;10.394;2022-10-10T04:00:38;9.73;;;5.80;;
6077;SDS011;3067;49.470;10.394;2022-10-10T04:03:06;10.10;;;5.73;;
6077;SDS011;3067;49.470;10.394;2022-10-10T04:05:33;9.27;;;5.80;;
6077;SDS011;3067;49.470;10.394;2022-10-10T04:08:01;8.33;;;5.57;;
6077;SDS011;3067;49.470;10.394;2022-10-10T04:10:28;8.10;;;5.20;;
6077;SDS011;3067;49.470;10.394;2022-10-10T04:12:55;5.30;;;4.77;;
6077;SDS011;3067;49.470;10.394;2022-10-10T04:15:24;8.33;;;5.83;;
6077;SDS011;3067;49.470;10.394;2022-10-10T04:17:51;6.80;;;5.17;;
6077;SDS011;3067;49.470;10.394;2022-10-10T04:20:19;11.13;;;5.40;;
6077;SDS011;3067;49.470;10.394;2022-10-10T04:22:46;7.30;;;5.43;;
6077;SDS011;3067;49.470;10.394;2022-10-10T04:25:13;8.73;;;5.07;;
6077;SDS011;3067;49.470;10.394;2022-10-10T04:27:41;6.10;;;4.60;;
6077;SDS011;3067;49.470;10.394;2022-10-10T04:30:09;5.00;;;4.57;;
6077;SDS011;3067;49.470;10.394;2022-10-10T04:32:38;7.10;;;4.50;;
6077;SDS011;3067;49.470;10.394;2022-10-10T04:35:05;6.53;;;4.57;;
6077;SDS011;3067;49.470;10.394;2022-10-10T04:37:32;8.07;;;5.00;;
6077;SDS011;3067;49.470;10.394;2022-10-10T04:40:00;10.03;;;4.67;;
6077;SDS011;3067;49.470;10.394;2022-10-10T04:42:27;5.93;;;4.70;;
6077;SDS011;3067;49.470;10.394;2022-10-10T04:44:54;9.47;;;4.93;;
6077;SDS011;3067;49.470;10.394;2022-10-10T04:47:22;5.70;;;4.57;;
6077;SDS011;3067;49.470;10.394;2022-10-10T04:49:50;7.90;;;5.00;;
6077;SDS011;3067;49.470;10.394;2022-10-10T04:52:18;13.13;;;5.30;;
6077;SDS011;3067;49.470;10.394;2022-10-10T04:54:45;9.43;;;4.80;;
6077;SDS011;3067;49.470;10.394;2022-10-10T04:57:12;5.50;;;4.97;;
6077;SDS011;3067;49.470;10.394;2022-10-10T04:59:39;5.13;;;4.63;;
6077;SDS011;3067;49.470;10.394;2022-10-10T05:02:07;10.50;;;5.20;;
6077;SDS011;3067;49.470;10.394;2022-10-10T05:04:34;5.13;;;4.63;;
6077;SDS011;3067;49.470;10.394;2022-10-10T05:07:03;6.23;;;4.77;;
6077;SDS011;3067;49.470;10.394;2022-10-10T05:09:30;7.63;;;4.63;;
6077;SDS011;3067;49.470;10.394;2022-10-10T05:11:59;6.77;;;5.20;;
6077;SDS011;3067;49.470;10.394;2022-10-10T05:14:27;11.13;;;5.37;;
6077;SDS011;3067;49.470;10.394;2022-10-10T05:16:54;6.17;;;4.87;;
6077;SDS011;3067;49.470;10.394;2022-10-10T05:19:22;11.20;;;5.10;;
6077;SDS011;3067;49.470;10.394;2022-10-10T05:21:49;5.67;;;5.07;;
6077;SDS011;3067;49.470;10.394;2022-10-10T05:24:18;6.27;;;4.97;;
6077;SDS011;3067;49.470;10.394;2022-10-10T05:26:45;7.77;;;5.00;;
6077;SDS011;3067;49.470;10.394;2022-10-10T05:29:12;12.40;;;5.47;;
6077;SDS011;3067;49.470;10.394;2022-10-10T05:31:39;9.33;;;4.70;;
6077;SDS011;3067;49.470;10.394;2022-10-10T05:34:08;5.60;;;5.00;;
6077;SDS011;3067;49.470;10.394;2022-10-10T05:36:36;8.03;;;5.43;;
6077;SDS011;3067;49.470;10.394;2022-10-10T05:39:03;4.60;;;4.20;;
6077;SDS011;3067;49.470;10.394;2022-10-10T05:41:32;5.83;;;5.23;;
6077;SDS011;3067;49.470;10.394;2022-10-10T05:43:59;7.17;;;5.10;;
6077;SDS011;3067;49.470;10.394;2022-10-10T05:46:26;9.37;;;4.80;;
6077;SDS011;3067;49.470;10.394;2022-10-10T05:48:54;8.60;;;5.10;;
6077;SDS011;3067;49.470;10.394;2022-10-10T05:51:21;6.90;;;5.17;;
6077;SDS011;3067;49.470;10.394;2022-10-10T05:53:49;9.33;;;5.17;;
6077;SDS011;3067;49.470;10.394;2022-10-10T05:56:16;5.13;;;4.73;;
6077;SDS011;3067;49.470;10.394;2022-10-10T05:58:45;7.03;;;5.33;;
6077;SDS011;3067;49.470;10.394;2022-10-10T06:01:13;6.93;;;5.30;;
6077;SDS011;3067;49.470;10.394;2022-10-10T06:03:40;5.90;;;5.40;;
6077;SDS011;3067;49.470;10.394;2022-10-10T06:06:08;5.13;;;4.63;;
6077;SDS011;3067;49.470;10.394;2022-10-10T06:08:35;21.97;;;5.30;;
6077;SDS011;3067;49.470;10.394;2022-10-10T06:11:03;5.60;;;5.07;;
6077;SDS011;3067;49.470;10.394;2022-10-10T06:13:32;6.33;;;5.50;;
6077;SDS011;3067;49.470;10.394;2022-10-10T06:16:00;14.30;;;5.63;;
6077;SDS011;3067;49.470;10.394;2022-10-10T06:18:27;5.30;;;4.80;;
6077;SDS011;3067;49.470;10.394;2022-10-10T06:20:59;7.77;;;5.20;;
6077;SDS011;3067;49.470;10.394;2022-10-10T06:23:27;5.73;;;4.93;;
6077;SDS011;3067;49.470;10.394;2022-10-10T06:25:54;7.30;;;5.10;;
6077;SDS011;3067;49.470;10.394;2022-10-10T06:28:21;5.80;;;5.30;;
6077;SDS011;3067;49.470;10.394;2022-10-10T06:30:49;5.53;;;5.00;;
6077;SDS011;3067;49.470;10.394;2022-10-10T06:33:17;5.77;;;5.23;;
6077;SDS011;3067;49.470;10.394;2022-10-10T06:35:45;5.90;;;5.30;;
6077;SDS011;3067;49.470;10.394;2022-10-10T06:38:13;7.93;;;5.33;;
6077;SDS011;3067;49.470;10.394;2022-10-10T06:40:41;13.13;;;6.07;;
6077;SDS011;3067;49.470;10.394;2022-10-10T06:43:09;7.80;;;5.93;;
6077;SDS011;3067;49.470;10.394;2022-10-10T06:45:36;12.10;;;5.87;;
6077;SDS011;3067;49.470;10.394;2022-10-10T06:48:04;7.80;;;6.17;;
6077;SDS011;3067;49.470;10.394;2022-10-10T06:50:33;14.00;;;6.70;;
6077;SDS011;3067;49.470;10.394;2022-10-10T06:53:01;10.43;;;6.40;;
6077;SDS011;3067;49.470;10.394;2022-10-10T06:55:28;7.37;;;5.67;;
6077;SDS011;3067;49.470;10.394;2022-10-10T06:57:56;7.80;;;6.30;;
6077;SDS011;3067;49.470;10.394;2022-10-10T07:00:24;9.73;;;6.33;;
6077;SDS011;3067;49.470;10.394;2022-10-10T07:02:51;10.13;;;6.87;;
6077;SDS011;3067;49.470;10.394;2022-10-10T07:05:18;7.53;;;6.57;;
6077;SDS011;3067;49.470;10.394;2022-10-10T07:07:47;8.60;;;6.57;;
6077;SDS011;3067;49.470;10.394;2022-10-10T07:10:14;8.60;;;6.57;;
6077;SDS011;3067;49.470;10.394;2022-10-10T07:12:41;15.60;;;7.73;;
6077;SDS011;3067;49.470;10.394;2022-10-10T07:15:09;8.13;;;6.80;;
6077;SDS011;3067;49.470;10.394;2022-10-10T07:17:36;13.43;;;7.03;;
6077;SDS011;3067;49.470;10.394;2022-10-10T07:20:04;9.07;;;7.10;;
6077;SDS011;3067;49.470;10.394;2022-10-10T07:22:31;8.00;;;6.60;;
6077;SDS011;3067;49.470;10.394;2022-10-10T07:25:00;7.73;;;5.90;;
6077;SDS011;3067;49.470;10.394;2022-10-10T07:27:27;8.77;;;7.47;;
6077;SDS011;3067;49.470;10.394;2022-10-10T07:29:55;9.60;;;6.83;;
6077;SDS011;3067;49.470;10.394;2022-10-10T07:32:22;12.33;;;7.67;;
6077;SDS011;3067;49.470;10.394;2022-10-10T07:34:49;15.37;;;7.13;;
6077;SDS011;3067;49.470;10.394;2022-10-10T07:37:17;9.20;;;6.80;;
6077;SDS011;3067;49.470;10.394;2022-10-10T07:39:44;6.97;;;6.37;;
6077;SDS011;3067;49.470;10.394;2022-10-10T07:42:13;17.70;;;6.83;;
6077;SDS011;3067;49.470;10.394;2022-10-10T07:44:40;8.90;;;6.83;;
6077;SDS011;3067;49.470;10.394;2022-10-10T07:47:08;8.53;;;6.50;;
6077;SDS011;3067;49.470;10.394;2022-10-10T07:49:35;8.90;;;7.30;;
6077;SDS011;3067;49.470;10.394;2022-10-10T07:52:02;10.40;;;7.07;;
6077;SDS011;3067;49.470;10.394;2022-10-10T07:54:30;11.07;;;7.67;;
6077;SDS011;3067;49.470;10.394;2022-10-10T07:56:57;12.30;;;7.00;;
6077;SDS011;3067;49.470;10.394;2022-10-10T07:59:26;12.10;;;7.10;;
6077;SDS011;3067;49.470;10.394;2022-10-10T08:01:53;10.77;;;7.60;;
6077;SDS011;3067;49.470;10.394;2022-10-10T08:04:20;15.67;;;8.33;;
6077;SDS011;3067;49.470;10.394;2022-10-10T08:06:48;10.00;;;7.20;;
6077;SDS011;3067;49.470;10.394;2022-10-10T08:09:15;14.90;;;7.33;;
6077;SDS011;3067;49.470;10.394;2022-10-10T08:11:42;10.23;;;8.47;;
6077;SDS011;3067;49.470;10.394;2022-10-10T08:14:09;9.97;;;7.70;;
6077;SDS011;3067;49.470;10.394;2022-10-10T08:16:38;13.40;;;8.10;;
6077;SDS011;3067;49.470;10.394;2022-10-10T08:19:05;9.70;;;7.70;;
6077;SDS011;3067;49.470;10.394;2022-10-10T08:21:33;12.37;;;8.30;;
6077;SDS011;3067;49.470;10.394;2022-10-10T08:24:01;12.43;;;7.80;;
6077;SDS011;3067;49.470;10.394;2022-10-10T08:26:28;18.27;;;8.47;;
6077;SDS011;3067;49.470;10.394;2022-10-10T08:28:55;16.70;;;7.90;;
6077;SDS011;3067;49.470;10.394;2022-10-10T08:31:23;12.23;;;7.10;;
6077;SDS011;3067;49.470;10.394;2022-10-10T08:33:51;11.20;;;7.30;;
6077;SDS011;3067;49.470;10.394;2022-10-10T08:36:20;14.13;;;8.67;;
6077;SDS011;3067;49.470;10.394;2022-10-10T08:38:47;11.90;;;7.83;;
6077;SDS011;3067;49.470;10.394;2022-10-10T08:41:17;10.63;;;7.97;;
6077;SDS011;3067;49.470;10.394;2022-10-10T08:43:48;10.20;;;7.87;;
6077;SDS011;3067;49.470;10.394;2022-10-10T08:46:17;16.20;;;8.13;;
6077;SDS011;3067;49.470;10.394;2022-10-10T08:48:45;17.60;;;7.77;;
6077;SDS011;3067;49.470;10.394;2022-10-10T08:51:16;16.73;;;8.57;;
6077;SDS011;3067;49.470;10.394;2022-10-10T08:53:48;9.17;;;7.93;;
6077;SDS011;3067;49.470;10.394;2022-10-10T08:56:20;15.63;;;8.33;;
6077;SDS011;3067;49.470;10.394;2022-10-10T08:58:51;20.80;;;8.90;;
6077;SDS011;3067;49.470;10.394;2022-10-10T09:01:20;10.83;;;8.70;;
6077;SDS011;3067;49.470;10.394;2022-10-10T09:03:50;15.00;;;8.80;;
6077;SDS011;3067;49.470;10.394;2022-10-10T09:06:24;8.60;;;7.70;;
6077;SDS011;3067;49.470;10.394;2022-10-10T09:08:57;12.47;;;9.00;;
6077;SDS011;3067;49.470;10.394;2022-10-10T09:11:32;13.50;;;9.03;;
6077;SDS011;3067;49.470;10.394;2022-10-10T09:14:03;12.60;;;8.80;;
6077;SDS011;3067;49.470;10.394;2022-10-10T09:16:34;13.40;;;8.80;;
6077;SDS011;3067;49.470;10.394;2022-10-10T09:19:03;12.57;;;9.00;;
6077;SDS011;3067;49.470;10.394;2022-10-10T09:21:36;11.80;;;8.60;;
6077;SDS011;3067;49.470;10.394;2022-10-10T09:24:07;13.17;;;8.20;;
6077;SDS011;3067;49.470;10.394;2022-10-10T09:26:38;10.30;;;7.70;;
6077;SDS011;3067;49.470;10.394;2022-10-10T09:29:12;12.03;;;7.67;;
6077;SDS011;3067;49.470;10.394;2022-10-10T09:31:44;9.83;;;7.43;;
6077;SDS011;3067;49.470;10.394;2022-10-10T09:34:15;9.07;;;7.23;;
6077;SDS011;3067;49.470;10.394;2022-10-10T09:36:45;8.50;;;7.37;;
6077;SDS011;3067;49.470;10.394;2022-10-10T09:39:15;10.13;;;7.00;;
6077;SDS011;3067;49.470;10.394;2022-10-10T09:41:45;9.20;;;7.10;;
6077;SDS011;3067;49.470;10.394;2022-10-10T09:44:13;8.30;;;6.87;;
6077;SDS011;3067;49.470;10.394;2022-10-10T09:46:41;10.37;;;7.80;;
6077;SDS011;3067;49.470;10.394;2022-10-10T09:49:08;10.13;;;6.07;;
6077;SDS011;3067;49.470;10.394;2022-10-10T09:51:38;11.80;;;6.67;;
6077;SDS011;3067;49.470;10.394;2022-10-10T09:54:07;12.13;;;6.80;;
6077;SDS011;3067;49.470;10.394;2022-10-10T09:56:37;11.47;;;6.00;;
6077;SDS011;3067;49.470;10.394;2022-10-10T09:59:06;7.40;;;6.67;;
6077;SDS011;3067;49.470;10.394;2022-10-10T10:02:00;10.93;;;5.70;;
6077;SDS011;3067;49.470;10.394;2022-10-10T10:04:30;7.80;;;5.73;;
6077;SDS011;3067;49.470;10.394;2022-10-10T10:07:04;11.87;;;6.03;;
6077;SDS011;3067;49.470;10.394;2022-10-10T10:09:34;11.57;;;5.83;;
6077;SDS011;3067;49.470;10.394;2022-10-10T10:12:01;10.30;;;5.33;;
6077;SDS011;3067;49.470;10.394;2022-10-10T10:14:34;7.17;;;6.13;;
6077;SDS011;3067;49.470;10.394;2022-10-10T10:17:05;6.53;;;5.40;;
6077;SDS011;3067;49.470;10.394;2022-10-10T10:19:33;8.00;;;6.00;;
6077;SDS011;3067;49.470;10.394;2022-10-10T10:22:01;6.73;;;5.30;;
6077;SDS011;3067;49.470;10.394;2022-10-10T10:24:29;8.37;;;5.90;;
6077;SDS011;3067;49.470;10.394;2022-10-10T10:27:08;6.00;;;5.20;;
6077;SDS011;3067;49.470;10.394;2022-10-10T10:29:36;6.17;;;5.50;;
6077;SDS011;3067;49.470;10.394;2022-10-10T10:32:04;12.30;;;5.67;;
6077;SDS011;3067;49.470;10.394;2022-10-10T10:37:20;6.80;;;5.43;;
6077;SDS011;3067;49.470;10.394;2022-10-10T10:40:03;6.17;;;5.10;;
6077;SDS011;3067;49.470;10.394;2022-10-10T10:42:40;5.47;;;4.53;;
6077;SDS011;3067;49.470;10.394;2022-10-10T10:45:13;5.33;;;4.40;;
6077;SDS011;3067;49.470;10.394;2022-10-10T10:47:43;6.33;;;4.87;;
6077;SDS011;3067;49.470;10.394;2022-10-10T10:50:25;7.97;;;5.13;;
6077;SDS011;3067;49.470;10.394;2022-10-10T10:52:55;9.00;;;5.10;;
6077;SDS011;3067;49.470;10.394;2022-10-10T10:55:24;11.40;;;5.10;;
6077;SDS011;3067;49.470;10.394;2022-10-10T10:57:58;19.17;;;5.07;;
6077;SDS011;3067;49.470;10.394;2022-10-10T11:00:30;5.77;;;5.17;;
6077;SDS011;3067;49.470;10.394;2022-10-10T11:03:04;8.80;;;6.00;;
6077;SDS011;3067;49.470;10.394;2022-10-10T11:05:34;6.20;;;5.60;;
6077;SDS011;3067;49.470;10.394;2022-10-10T11:08:06;11.17;;;5.07;;
6077;SDS011;3067;49.470;10.394;2022-10-10T11:10:37;7.33;;;5.60;;
6077;SDS011;3067;49.470;10.394;2022-10-10T11:13:08;11.30;;;5.87;;
6077;SDS011;3067;49.470;10.394;2022-10-10T11:15:40;6.43;;;5.10;;
6077;SDS011;3067;49.470;10.394;2022-10-10T11:18:09;9.70;;;5.20;;
6077;SDS011;3067;49.470;10.394;2022-10-10T11:20:40;9.37;;;5.60;;
6077;SDS011;3067;49.470;10.394;2022-10-10T11:23:09;7.87;;;4.97;;
6077;SDS011;3067;49.470;10.394;2022-10-10T11:25:40;11.00;;;5.33;;
6077;SDS011;3067;49.470;10.394;2022-10-10T11:28:10;15.57;;;5.10;;
6077;SDS011;3067;49.470;10.394;2022-10-10T11:30:41;7.50;;;5.20;;
6077;SDS011;3067;49.470;10.394;2022-10-10T11:33:11;6.00;;;4.90;;
6077;SDS011;3067;49.470;10.394;2022-10-10T11:35:42;11.03;;;4.87;;
6077;SDS011;3067;49.470;10.394;2022-10-10T11:38:12;4.67;;;4.30;;
6077;SDS011;3067;49.470;10.394;2022-10-10T11:40:44;9.43;;;5.20;;
6077;SDS011;3067;49.470;10.394;2022-10-10T11:43:16;5.13;;;4.50;;
6077;SDS011;3067;49.470;10.394;2022-10-10T11:45:46;11.73;;;4.73;;
6077;SDS011;3067;49.470;10.394;2022-10-10T11:48:18;5.70;;;4.23;;
6077;SDS011;3067;49.470;10.394;2022-10-10T11:50:49;5.70;;;4.77;;
6077;SDS011;3067;49.470;10.394;2022-10-10T11:53:19;7.40;;;4.80;;
6077;SDS011;3067;49.470;10.394;2022-10-10T11:55:50;6.70;;;4.17;;
6077;SDS011;3067;49.470;10.394;2022-10-10T11:58:25;4.40;;;3.97;;
6077;SDS011;3067;49.470;10.394;2022-10-10T12:00:55;8.93;;;4.53;;
6077;SDS011;3067;49.470;10.394;2022-10-10T12:03:23;11.50;;;4.60;;
6077;SDS011;3067;49.470;10.394;2022-10-10T12:05:52;9.03;;;4.37;;
6077;SDS011;3067;49.470;10.394;2022-10-10T12:08:22;4.90;;;4.50;;
6077;SDS011;3067;49.470;10.394;2022-10-10T12:10:52;7.10;;;4.40;;
6077;SDS011;3067;49.470;10.394;2022-10-10T12:13:25;5.37;;;4.20;;
6077;SDS011;3067;49.470;10.394;2022-10-10T12:15:54;5.27;;;4.17;;
6077;SDS011;3067;49.470;10.394;2022-10-10T12:18:27;9.50;;;4.27;;
6077;SDS011;3067;49.470;10.394;2022-10-10T12:21:01;8.30;;;4.00;;
6077;SDS011;3067;49.470;10.394;2022-10-10T12:23:29;6.23;;;4.00;;
6077;SDS011;3067;49.470;10.394;2022-10-10T12:25:57;5.63;;;4.00;;
6077;SDS011;3067;49.470;10.394;2022-10-10T12:28:27;7.53;;;4.20;;
6077;SDS011;3067;49.470;10.394;2022-10-10T12:39:33;4.60;;;3.47;;
6077;SDS011;3067;49.470;10.394;2022-10-10T12:42:00;8.93;;;3.10;;
6077;SDS011;3067;49.470;10.394;2022-10-10T12:44:42;4.87;;;3.50;;
6077;SDS011;3067;49.470;10.394;2022-10-10T12:49:55;3.30;;;2.97;;
6077;SDS011;3067;49.470;10.394;2022-10-10T12:52:24;5.13;;;3.37;;
6077;SDS011;3067;49.470;10.394;2022-10-10T12:54:52;7.93;;;3.20;;
6077;SDS011;3067;49.470;10.394;2022-10-10T12:57:27;7.70;;;3.30;;
6077;SDS011;3067;49.470;10.394;2022-10-10T12:59:56;5.47;;;3.30;;
6077;SDS011;3067;49.470;10.394;2022-10-10T13:02:25;7.60;;;3.40;;
6077;SDS011;3067;49.470;10.394;2022-10-10T13:04:53;5.90;;;2.70;;
6077;SDS011;3067;49.470;10.394;2022-10-10T13:07:22;7.23;;;2.80;;
6077;SDS011;3067;49.470;10.394;2022-10-10T13:09:51;7.97;;;2.80;;
6077;SDS011;3067;49.470;10.394;2022-10-10T13:12:23;7.97;;;3.03;;
6077;SDS011;3067;49.470;10.394;2022-10-10T13:14:50;4.23;;;3.40;;
6077;SDS011;3067;49.470;10.394;2022-10-10T13:17:21;4.50;;;3.07;;
6077;SDS011;3067;49.470;10.394;2022-10-10T13:19:49;4.80;;;2.57;;
6077;SDS011;3067;49.470;10.394;2022-10-10T13:22:16;10.03;;;2.60;;
6077;SDS011;3067;49.470;10.394;2022-10-10T13:24:44;15.77;;;3.97;;
6077;SDS011;3067;49.470;10.394;2022-10-10T13:27:14;3.87;;;2.30;;
6077;SDS011;3067;49.470;10.394;2022-10-10T13:29:41;8.00;;;2.70;;
6077;SDS011;3067;49.470;10.394;2022-10-10T13:32:10;8.77;;;2.80;;
6077;SDS011;3067;49.470;10.394;2022-10-10T13:34:42;9.40;;;2.43;;
6077;SDS011;3067;49.470;10.394;2022-10-10T13:37:12;6.03;;;2.30;;
6077;SDS011;3067;49.470;10.394;2022-10-10T13:39:40;4.60;;;1.97;;
6077;SDS011;3067;49.470;10.394;2022-10-10T13:42:11;3.60;;;1.83;;
6077;SDS011;3067;49.470;10.394;2022-10-10T13:44:46;9.10;;;1.83;;
6077;SDS011;3067;49.470;10.394;2022-10-10T13:50:01;6.80;;;2.20;;
6077;SDS011;3067;49.470;10.394;2022-10-10T13:52:28;6.13;;;2.23;;
6077;SDS011;3067;49.470;10.394;2022-10-10T13:55:12;8.20;;;2.43;;
6077;SDS011;3067;49.470;10.394;2022-10-10T13:57:39;7.57;;;2.40;;
6077;SDS011;3067;49.470;10.394;2022-10-10T14:00:13;4.00;;;2.07;;
6077;SDS011;3067;49.470;10.394;2022-10-10T14:02:41;20.30;;;2.57;;
6077;SDS011;3067;49.470;10.394;2022-10-10T14:05:13;7.10;;;2.53;;
6077;SDS011;3067;49.470;10.394;2022-10-10T14:07:45;12.67;;;2.27;;
6077;SDS011;3067;49.470;10.394;2022-10-10T14:10:13;14.27;;;2.13;;
6077;SDS011;3067;49.470;10.394;2022-10-10T14:12:47;6.93;;;2.30;;
6077;SDS011;3067;49.470;10.394;2022-10-10T14:15:35;3.73;;;2.20;;
6077;SDS011;3067;49.470;10.394;2022-10-10T14:18:09;4.50;;;2.10;;
6077;SDS011;3067;49.470;10.394;2022-10-10T14:20:40;6.83;;;2.23;;
6077;SDS011;3067;49.470;10.394;2022-10-10T14:23:07;7.83;;;2.20;;
6077;SDS011;3067;49.470;10.394;2022-10-10T14:25:35;9.10;;;2.27;;
6077;SDS011;3067;49.470;10.394;2022-10-10T14:28:03;8.63;;;2.20;;
6077;SDS011;3067;49.470;10.394;2022-10-10T14:30:31;13.77;;;2.20;;
6077;SDS011;3067;49.470;10.394;2022-10-10T14:33:00;9.37;;;2.30;;
6077;SDS011;3067;49.470;10.394;2022-10-10T14:35:27;13.17;;;2.17;;
6077;SDS011;3067;49.470;10.394;2022-10-10T14:37:56;12.53;;;2.17;;
6077;SDS011;3067;49.470;10.394;2022-10-10T14:40:23;10.43;;;2.33;;
6077;SDS011;3067;49.470;10.394;2022-10-10T14:42:53;11.27;;;2.43;;
6077;SDS011;3067;49.470;10.394;2022-10-10T14:45:20;9.77;;;2.30;;
6077;SDS011;3067;49.470;10.394;2022-10-10T14:47:47;9.03;;;2.90;;
6077;SDS011;3067;49.470;10.394;2022-10-10T14:50:16;6.20;;;2.83;;
6077;SDS011;3067;49.470;10.394;2022-10-10T14:52:44;13.27;;;2.73;;
6077;SDS011;3067;49.470;10.394;2022-10-10T14:55:13;13.57;;;2.80;;
6077;SDS011;3067;49.470;10.394;2022-10-10T14:57:40;13.33;;;3.07;;
6077;SDS011;3067;49.470;10.394;2022-10-10T15:00:10;7.23;;;2.43;;
6077;SDS011;3067;49.470;10.394;2022-10-10T15:02:38;9.07;;;3.03;;
6077;SDS011;3067;49.470;10.394;2022-10-10T15:05:05;11.93;;;3.10;;
6077;SDS011;3067;49.470;10.394;2022-10-10T15:07:33;11.03;;;2.57;;
6077;SDS011;3067;49.470;10.394;2022-10-10T15:10:00;15.97;;;2.93;;
6077;SDS011;3067;49.470;10.394;2022-10-10T15:12:29;7.47;;;2.60;;
6077;SDS011;3067;49.470;10.394;2022-10-10T15:14:57;14.60;;;3.17;;
6077;SDS011;3067;49.470;10.394;2022-10-10T15:17:24;12.27;;;3.10;;
6077;SDS011;3067;49.470;10.394;2022-10-10T15:19:53;9.07;;;3.33;;
6077;SDS011;3067;49.470;10.394;2022-10-10T15:22:21;10.30;;;3.37;;
6077;SDS011;3067;49.470;10.394;2022-10-10T15:24:48;7.57;;;3.07;;
6077;SDS011;3067;49.470;10.394;2022-10-10T15:27:15;18.47;;;3.30;;